sensor_id;sensor_type;location;lat;lon;timestamp;P1;durP1;ratioP1;P2;durP2;ratioP2
20870;SDS011;10595;51.218;3.452;2024-03-22T00:01:45;35.43;;;18.40;;
20870;SDS011;10595;51.218;3.452;2024-03-22T00:04:12;40.43;;;19.43;;
20870;SDS011;10595;51.218;3.452;2024-03-22T00:06:38;35.60;;;18.07;;
20870;SDS011;10595;51.218;3.452;2024-03-22T00:09:05;35.47;;;18.87;;
20870;SDS011;10595;51.218;3.452;2024-03-22T00:11:31;40.70;;;20.13;;
20870;SDS011;10595;51.218;3.452;2024-03-22T00:13:57;38.60;;;19.27;;
20870;SDS011;10595;51.218;3.452;2024-03-22T00:16:23;40.17;;;21.20;;
20870;SDS011;10595;51.218;3.452;2024-03-22T00:18:49;37.70;;;19.03;;
20870;SDS011;10595;51.218;3.452;2024-03-22T00:21:16;38.87;;;18.90;;
20870;SDS011;10595;51.218;3.452;2024-03-22T00:23:42;41.50;;;20.90;;
20870;SDS011;10595;51.218;3.452;2024-03-22T00:26:08;40.00;;;20.00;;
20870;SDS011;10595;51.218;3.452;2024-03-22T00:28:34;39.80;;;20.33;;
20870;SDS011;10595;51.218;3.452;2024-03-22T00:31:00;44.03;;;20.77;;
20870;SDS011;10595;51.218;3.452;2024-03-22T00:33:26;39.73;;;20.00;;
20870;SDS011;10595;51.218;3.452;2024-03-22T00:35:52;41.33;;;21.27;;
20870;SDS011;10595;51.218;3.452;2024-03-22T00:38:18;40.50;;;19.90;;
20870;SDS011;10595;51.218;3.452;2024-03-22T00:40:44;40.30;;;20.27;;
20870;SDS011;10595;51.218;3.452;2024-03-22T00:43:10;36.50;;;20.10;;
20870;SDS011;10595;51.218;3.452;2024-03-22T00:45:36;38.13;;;19.50;;
20870;SDS011;10595;51.218;3.452;2024-03-22T00:48:02;37.93;;;20.03;;
20870;SDS011;10595;51.218;3.452;2024-03-22T00:50:28;40.33;;;20.57;;
20870;SDS011;10595;51.218;3.452;2024-03-22T00:52:54;38.90;;;19.87;;
20870;SDS011;10595;51.218;3.452;2024-03-22T00:55:21;37.90;;;20.27;;
20870;SDS011;10595;51.218;3.452;2024-03-22T00:57:48;37.73;;;19.63;;
20870;SDS011;10595;51.218;3.452;2024-03-22T01:00:14;37.13;;;19.40;;
20870;SDS011;10595;51.218;3.452;2024-03-22T01:02:40;40.77;;;20.30;;
20870;SDS011;10595;51.218;3.452;2024-03-22T01:05:06;40.50;;;20.17;;
20870;SDS011;10595;51.218;3.452;2024-03-22T01:07:33;42.77;;;20.87;;
20870;SDS011;10595;51.218;3.452;2024-03-22T01:09:59;36.63;;;19.17;;
20870;SDS011;10595;51.218;3.452;2024-03-22T01:12:25;37.80;;;19.50;;
20870;SDS011;10595;51.218;3.452;2024-03-22T01:14:51;34.63;;;18.20;;
20870;SDS011;10595;51.218;3.452;2024-03-22T01:17:17;33.63;;;18.37;;
20870;SDS011;10595;51.218;3.452;2024-03-22T01:19:43;32.17;;;18.57;;
20870;SDS011;10595;51.218;3.452;2024-03-22T01:22:09;32.63;;;18.27;;
20870;SDS011;10595;51.218;3.452;2024-03-22T01:24:35;33.60;;;17.93;;
20870;SDS011;10595;51.218;3.452;2024-03-22T01:27:01;33.77;;;18.77;;
20870;SDS011;10595;51.218;3.452;2024-03-22T01:29:27;32.43;;;17.83;;
20870;SDS011;10595;51.218;3.452;2024-03-22T01:31:57;34.87;;;17.83;;
20870;SDS011;10595;51.218;3.452;2024-03-22T01:34:23;34.57;;;17.57;;
20870;SDS011;10595;51.218;3.452;2024-03-22T01:36:50;34.53;;;18.13;;
20870;SDS011;10595;51.218;3.452;2024-03-22T01:39:16;31.00;;;17.40;;
20870;SDS011;10595;51.218;3.452;2024-03-22T01:41:43;35.97;;;19.00;;
20870;SDS011;10595;51.218;3.452;2024-03-22T01:44:09;35.50;;;18.83;;
20870;SDS011;10595;51.218;3.452;2024-03-22T01:46:37;36.40;;;20.23;;
20870;SDS011;10595;51.218;3.452;2024-03-22T01:49:03;35.73;;;18.57;;
20870;SDS011;10595;51.218;3.452;2024-03-22T01:51:29;30.77;;;17.83;;
20870;SDS011;10595;51.218;3.452;2024-03-22T01:53:55;39.07;;;18.70;;
20870;SDS011;10595;51.218;3.452;2024-03-22T01:56:21;34.87;;;17.63;;
20870;SDS011;10595;51.218;3.452;2024-03-22T01:58:47;33.93;;;18.10;;
20870;SDS011;10595;51.218;3.452;2024-03-22T02:01:13;35.60;;;18.43;;
20870;SDS011;10595;51.218;3.452;2024-03-22T02:03:39;36.03;;;17.60;;
20870;SDS011;10595;51.218;3.452;2024-03-22T02:06:05;36.93;;;18.07;;
20870;SDS011;10595;51.218;3.452;2024-03-22T02:08:31;33.40;;;17.60;;
20870;SDS011;10595;51.218;3.452;2024-03-22T02:10:57;34.83;;;17.63;;
20870;SDS011;10595;51.218;3.452;2024-03-22T02:13:23;34.77;;;17.97;;
20870;SDS011;10595;51.218;3.452;2024-03-22T02:15:49;31.07;;;17.20;;
20870;SDS011;10595;51.218;3.452;2024-03-22T02:18:15;32.30;;;16.60;;
20870;SDS011;10595;51.218;3.452;2024-03-22T02:20:41;33.33;;;17.50;;
20870;SDS011;10595;51.218;3.452;2024-03-22T02:23:07;29.97;;;16.07;;
20870;SDS011;10595;51.218;3.452;2024-03-22T02:25:33;32.07;;;16.50;;
20870;SDS011;10595;51.218;3.452;2024-03-22T02:27:59;31.53;;;15.87;;
20870;SDS011;10595;51.218;3.452;2024-03-22T02:30:25;30.03;;;15.40;;
20870;SDS011;10595;51.218;3.452;2024-03-22T02:32:51;33.13;;;16.53;;
20870;SDS011;10595;51.218;3.452;2024-03-22T02:35:17;30.57;;;15.57;;
20870;SDS011;10595;51.218;3.452;2024-03-22T02:37:43;30.53;;;15.73;;
20870;SDS011;10595;51.218;3.452;2024-03-22T02:40:09;26.90;;;15.27;;
20870;SDS011;10595;51.218;3.452;2024-03-22T02:42:35;27.77;;;15.67;;
20870;SDS011;10595;51.218;3.452;2024-03-22T02:45:01;27.70;;;15.27;;
20870;SDS011;10595;51.218;3.452;2024-03-22T02:47:27;29.77;;;15.33;;
20870;SDS011;10595;51.218;3.452;2024-03-22T02:49:53;24.13;;;14.30;;
20870;SDS011;10595;51.218;3.452;2024-03-22T02:52:19;28.77;;;15.30;;
20870;SDS011;10595;51.218;3.452;2024-03-22T02:54:45;27.83;;;15.37;;
20870;SDS011;10595;51.218;3.452;2024-03-22T02:57:11;26.70;;;14.30;;
20870;SDS011;10595;51.218;3.452;2024-03-22T02:59:38;30.80;;;16.53;;
20870;SDS011;10595;51.218;3.452;2024-03-22T03:02:04;29.33;;;15.80;;
20870;SDS011;10595;51.218;3.452;2024-03-22T03:04:30;29.47;;;15.23;;
20870;SDS011;10595;51.218;3.452;2024-03-22T03:06:56;29.70;;;16.53;;
20870;SDS011;10595;51.218;3.452;2024-03-22T03:09:22;30.77;;;16.53;;
20870;SDS011;10595;51.218;3.452;2024-03-22T03:11:48;28.27;;;15.30;;
20870;SDS011;10595;51.218;3.452;2024-03-22T03:14:14;28.47;;;16.90;;
20870;SDS011;10595;51.218;3.452;2024-03-22T03:16:40;33.23;;;15.83;;
20870;SDS011;10595;51.218;3.452;2024-03-22T03:19:06;30.73;;;16.53;;
20870;SDS011;10595;51.218;3.452;2024-03-22T03:21:32;33.07;;;17.43;;
20870;SDS011;10595;51.218;3.452;2024-03-22T03:23:58;34.70;;;17.37;;
20870;SDS011;10595;51.218;3.452;2024-03-22T03:26:24;32.37;;;17.40;;
20870;SDS011;10595;51.218;3.452;2024-03-22T03:28:51;32.37;;;17.77;;
20870;SDS011;10595;51.218;3.452;2024-03-22T03:31:16;37.33;;;18.80;;
20870;SDS011;10595;51.218;3.452;2024-03-22T03:33:42;36.57;;;18.43;;
20870;SDS011;10595;51.218;3.452;2024-03-22T03:36:08;37.43;;;18.67;;
20870;SDS011;10595;51.218;3.452;2024-03-22T03:38:34;37.50;;;18.17;;
20870;SDS011;10595;51.218;3.452;2024-03-22T03:41:02;33.27;;;18.77;;
20870;SDS011;10595;51.218;3.452;2024-03-22T03:43:28;36.50;;;18.50;;
20870;SDS011;10595;51.218;3.452;2024-03-22T03:45:55;35.20;;;17.90;;
20870;SDS011;10595;51.218;3.452;2024-03-22T03:48:21;34.67;;;18.83;;
20870;SDS011;10595;51.218;3.452;2024-03-22T03:50:53;36.00;;;18.83;;
20870;SDS011;10595;51.218;3.452;2024-03-22T03:53:20;37.37;;;20.10;;
20870;SDS011;10595;51.218;3.452;2024-03-22T03:55:46;40.50;;;19.20;;
20870;SDS011;10595;51.218;3.452;2024-03-22T03:58:12;37.93;;;18.53;;
20870;SDS011;10595;51.218;3.452;2024-03-22T04:00:38;37.53;;;18.77;;
20870;SDS011;10595;51.218;3.452;2024-03-22T04:03:04;40.63;;;20.03;;
20870;SDS011;10595;51.218;3.452;2024-03-22T04:05:30;38.57;;;20.00;;
20870;SDS011;10595;51.218;3.452;2024-03-22T04:07:56;38.90;;;18.67;;
20870;SDS011;10595;51.218;3.452;2024-03-22T04:10:22;39.07;;;18.40;;
20870;SDS011;10595;51.218;3.452;2024-03-22T04:12:48;36.67;;;18.10;;
20870;SDS011;10595;51.218;3.452;2024-03-22T04:15:14;40.10;;;17.60;;
20870;SDS011;10595;51.218;3.452;2024-03-22T04:17:40;35.33;;;17.63;;
20870;SDS011;10595;51.218;3.452;2024-03-22T04:20:06;36.27;;;18.07;;
20870;SDS011;10595;51.218;3.452;2024-03-22T04:22:33;37.77;;;18.87;;
20870;SDS011;10595;51.218;3.452;2024-03-22T04:24:59;32.40;;;17.57;;
20870;SDS011;10595;51.218;3.452;2024-03-22T04:27:25;31.13;;;15.77;;
20870;SDS011;10595;51.218;3.452;2024-03-22T04:29:51;32.93;;;16.70;;
20870;SDS011;10595;51.218;3.452;2024-03-22T04:32:17;34.57;;;16.60;;
20870;SDS011;10595;51.218;3.452;2024-03-22T04:34:43;37.73;;;17.37;;
20870;SDS011;10595;51.218;3.452;2024-03-22T04:37:10;34.57;;;16.00;;
20870;SDS011;10595;51.218;3.452;2024-03-22T04:39:41;33.73;;;15.73;;
20870;SDS011;10595;51.218;3.452;2024-03-22T04:42:07;33.03;;;15.30;;
20870;SDS011;10595;51.218;3.452;2024-03-22T04:44:33;32.27;;;14.47;;
20870;SDS011;10595;51.218;3.452;2024-03-22T04:46:59;34.83;;;15.00;;
20870;SDS011;10595;51.218;3.452;2024-03-22T04:49:25;28.80;;;13.53;;
20870;SDS011;10595;51.218;3.452;2024-03-22T04:51:51;31.60;;;14.50;;
20870;SDS011;10595;51.218;3.452;2024-03-22T04:54:17;29.43;;;13.83;;
20870;SDS011;10595;51.218;3.452;2024-03-22T04:56:43;32.80;;;15.13;;
20870;SDS011;10595;51.218;3.452;2024-03-22T04:59:09;27.23;;;12.93;;
20870;SDS011;10595;51.218;3.452;2024-03-22T05:01:35;31.97;;;13.97;;
20870;SDS011;10595;51.218;3.452;2024-03-22T05:04:01;30.57;;;13.60;;
20870;SDS011;10595;51.218;3.452;2024-03-22T05:06:27;30.57;;;14.00;;
20870;SDS011;10595;51.218;3.452;2024-03-22T05:08:53;29.83;;;14.63;;
20870;SDS011;10595;51.218;3.452;2024-03-22T05:11:19;34.40;;;14.70;;
20870;SDS011;10595;51.218;3.452;2024-03-22T05:13:45;36.97;;;15.23;;
20870;SDS011;10595;51.218;3.452;2024-03-22T05:16:11;33.57;;;15.80;;
20870;SDS011;10595;51.218;3.452;2024-03-22T05:18:37;31.43;;;14.67;;
20870;SDS011;10595;51.218;3.452;2024-03-22T05:21:03;31.50;;;14.93;;
20870;SDS011;10595;51.218;3.452;2024-03-22T05:23:29;32.67;;;15.33;;
20870;SDS011;10595;51.218;3.452;2024-03-22T05:25:55;34.57;;;15.30;;
20870;SDS011;10595;51.218;3.452;2024-03-22T05:28:21;34.17;;;15.80;;
20870;SDS011;10595;51.218;3.452;2024-03-22T05:30:48;39.73;;;17.50;;
20870;SDS011;10595;51.218;3.452;2024-03-22T05:33:14;37.10;;;17.70;;
20870;SDS011;10595;51.218;3.452;2024-03-22T05:35:40;41.33;;;18.87;;
20870;SDS011;10595;51.218;3.452;2024-03-22T05:38:06;41.87;;;19.13;;
20870;SDS011;10595;51.218;3.452;2024-03-22T05:40:32;42.17;;;20.43;;
20870;SDS011;10595;51.218;3.452;2024-03-22T05:43:03;39.60;;;18.70;;
20870;SDS011;10595;51.218;3.452;2024-03-22T05:45:29;40.77;;;19.13;;
20870;SDS011;10595;51.218;3.452;2024-03-22T05:47:55;39.13;;;18.47;;
20870;SDS011;10595;51.218;3.452;2024-03-22T05:50:21;39.33;;;18.90;;
20870;SDS011;10595;51.218;3.452;2024-03-22T05:52:47;37.20;;;17.60;;
20870;SDS011;10595;51.218;3.452;2024-03-22T05:55:13;40.67;;;17.87;;
20870;SDS011;10595;51.218;3.452;2024-03-22T05:57:39;37.40;;;18.13;;
20870;SDS011;10595;51.218;3.452;2024-03-22T06:00:05;38.67;;;18.10;;
20870;SDS011;10595;51.218;3.452;2024-03-22T06:02:34;37.37;;;16.73;;
20870;SDS011;10595;51.218;3.452;2024-03-22T06:05:00;33.43;;;16.80;;
20870;SDS011;10595;51.218;3.452;2024-03-22T06:07:26;36.77;;;16.97;;
20870;SDS011;10595;51.218;3.452;2024-03-22T06:09:52;34.23;;;16.27;;
20870;SDS011;10595;51.218;3.452;2024-03-22T06:12:18;32.13;;;16.17;;
20870;SDS011;10595;51.218;3.452;2024-03-22T06:14:44;34.60;;;16.73;;
20870;SDS011;10595;51.218;3.452;2024-03-22T06:17:13;32.33;;;14.63;;
20870;SDS011;10595;51.218;3.452;2024-03-22T06:19:40;31.47;;;15.23;;
20870;SDS011;10595;51.218;3.452;2024-03-22T06:22:06;35.23;;;16.97;;
20870;SDS011;10595;51.218;3.452;2024-03-22T06:24:32;30.37;;;15.27;;
20870;SDS011;10595;51.218;3.452;2024-03-22T06:26:58;27.83;;;15.23;;
20870;SDS011;10595;51.218;3.452;2024-03-22T06:29:25;30.80;;;15.07;;
20870;SDS011;10595;51.218;3.452;2024-03-22T06:31:51;34.40;;;15.90;;
20870;SDS011;10595;51.218;3.452;2024-03-22T06:34:17;34.03;;;17.00;;
20870;SDS011;10595;51.218;3.452;2024-03-22T06:36:43;32.43;;;15.07;;
20870;SDS011;10595;51.218;3.452;2024-03-22T06:39:09;27.37;;;14.83;;
20870;SDS011;10595;51.218;3.452;2024-03-22T06:41:35;29.93;;;15.57;;
20870;SDS011;10595;51.218;3.452;2024-03-22T06:44:02;34.43;;;15.07;;
20870;SDS011;10595;51.218;3.452;2024-03-22T06:46:28;32.93;;;15.77;;
20870;SDS011;10595;51.218;3.452;2024-03-22T06:48:54;31.07;;;15.10;;
20870;SDS011;10595;51.218;3.452;2024-03-22T06:51:20;30.83;;;15.27;;
20870;SDS011;10595;51.218;3.452;2024-03-22T06:53:46;26.53;;;14.37;;
20870;SDS011;10595;51.218;3.452;2024-03-22T06:56:13;30.60;;;13.43;;
20870;SDS011;10595;51.218;3.452;2024-03-22T06:58:39;27.53;;;13.90;;
20870;SDS011;10595;51.218;3.452;2024-03-22T07:01:05;28.70;;;13.03;;
20870;SDS011;10595;51.218;3.452;2024-03-22T07:03:31;32.17;;;13.67;;
20870;SDS011;10595;51.218;3.452;2024-03-22T07:05:57;32.23;;;14.03;;
20870;SDS011;10595;51.218;3.452;2024-03-22T07:08:23;25.90;;;13.67;;
20870;SDS011;10595;51.218;3.452;2024-03-22T07:10:50;28.13;;;13.40;;
20870;SDS011;10595;51.218;3.452;2024-03-22T07:13:18;31.67;;;13.67;;
20870;SDS011;10595;51.218;3.452;2024-03-22T07:15:44;29.57;;;13.07;;
20870;SDS011;10595;51.218;3.452;2024-03-22T07:18:11;27.73;;;13.40;;
20870;SDS011;10595;51.218;3.452;2024-03-22T07:20:37;30.83;;;13.73;;
20870;SDS011;10595;51.218;3.452;2024-03-22T07:23:03;25.83;;;12.53;;
20870;SDS011;10595;51.218;3.452;2024-03-22T07:25:29;34.97;;;13.23;;
20870;SDS011;10595;51.218;3.452;2024-03-22T07:27:55;32.20;;;14.37;;
20870;SDS011;10595;51.218;3.452;2024-03-22T07:30:21;26.60;;;13.17;;
20870;SDS011;10595;51.218;3.452;2024-03-22T07:32:47;27.43;;;13.47;;
20870;SDS011;10595;51.218;3.452;2024-03-22T07:35:13;29.37;;;12.17;;
20870;SDS011;10595;51.218;3.452;2024-03-22T07:37:39;25.97;;;11.93;;
20870;SDS011;10595;51.218;3.452;2024-03-22T07:40:06;26.60;;;12.20;;
20870;SDS011;10595;51.218;3.452;2024-03-22T07:42:32;27.37;;;12.33;;
20870;SDS011;10595;51.218;3.452;2024-03-22T07:44:58;26.20;;;11.87;;
20870;SDS011;10595;51.218;3.452;2024-03-22T07:47:24;21.60;;;11.37;;
20870;SDS011;10595;51.218;3.452;2024-03-22T07:49:50;21.87;;;11.90;;
20870;SDS011;10595;51.218;3.452;2024-03-22T07:52:16;23.53;;;12.00;;
20870;SDS011;10595;51.218;3.452;2024-03-22T07:54:42;26.30;;;11.90;;
20870;SDS011;10595;51.218;3.452;2024-03-22T07:57:08;22.67;;;11.53;;
20870;SDS011;10595;51.218;3.452;2024-03-22T07:59:35;21.83;;;11.00;;
20870;SDS011;10595;51.218;3.452;2024-03-22T08:02:01;26.93;;;11.33;;
20870;SDS011;10595;51.218;3.452;2024-03-22T08:04:28;23.27;;;11.33;;
20870;SDS011;10595;51.218;3.452;2024-03-22T08:06:54;26.90;;;11.60;;
20870;SDS011;10595;51.218;3.452;2024-03-22T08:09:20;27.83;;;11.50;;
20870;SDS011;10595;51.218;3.452;2024-03-22T08:11:47;22.00;;;11.13;;
20870;SDS011;10595;51.218;3.452;2024-03-22T08:14:13;23.60;;;11.33;;
20870;SDS011;10595;51.218;3.452;2024-03-22T08:16:39;25.10;;;10.70;;
20870;SDS011;10595;51.218;3.452;2024-03-22T08:19:05;22.73;;;10.37;;
20870;SDS011;10595;51.218;3.452;2024-03-22T08:21:31;23.90;;;10.77;;
20870;SDS011;10595;51.218;3.452;2024-03-22T08:23:57;26.20;;;11.07;;
20870;SDS011;10595;51.218;3.452;2024-03-22T08:26:23;25.00;;;11.27;;
20870;SDS011;10595;51.218;3.452;2024-03-22T08:28:49;21.93;;;10.83;;
20870;SDS011;10595;51.218;3.452;2024-03-22T08:31:15;29.50;;;10.43;;
20870;SDS011;10595;51.218;3.452;2024-03-22T08:33:42;24.97;;;11.03;;
20870;SDS011;10595;51.218;3.452;2024-03-22T08:36:08;25.50;;;10.93;;
20870;SDS011;10595;51.218;3.452;2024-03-22T08:38:34;19.80;;;10.43;;
20870;SDS011;10595;51.218;3.452;2024-03-22T08:41:00;25.13;;;10.20;;
20870;SDS011;10595;51.218;3.452;2024-03-22T08:43:26;25.50;;;11.00;;
20870;SDS011;10595;51.218;3.452;2024-03-22T08:45:54;24.00;;;10.67;;
20870;SDS011;10595;51.218;3.452;2024-03-22T08:48:20;22.83;;;10.80;;
20870;SDS011;10595;51.218;3.452;2024-03-22T08:50:46;25.17;;;11.23;;
20870;SDS011;10595;51.218;3.452;2024-03-22T08:53:12;20.23;;;9.57;;
20870;SDS011;10595;51.218;3.452;2024-03-22T08:55:38;28.40;;;10.57;;
20870;SDS011;10595;51.218;3.452;2024-03-22T08:58:10;22.87;;;10.07;;
20870;SDS011;10595;51.218;3.452;2024-03-22T09:00:36;22.90;;;10.10;;
20870;SDS011;10595;51.218;3.452;2024-03-22T09:03:03;20.50;;;9.63;;
20870;SDS011;10595;51.218;3.452;2024-03-22T09:05:29;24.50;;;9.80;;
20870;SDS011;10595;51.218;3.452;2024-03-22T09:07:55;19.20;;;9.93;;
20870;SDS011;10595;51.218;3.452;2024-03-22T09:10:22;22.53;;;9.37;;
20870;SDS011;10595;51.218;3.452;2024-03-22T09:12:48;19.37;;;8.17;;
20870;SDS011;10595;51.218;3.452;2024-03-22T09:15:14;21.63;;;9.13;;
20870;SDS011;10595;51.218;3.452;2024-03-22T09:17:40;15.70;;;8.90;;
20870;SDS011;10595;51.218;3.452;2024-03-22T09:20:06;24.77;;;9.90;;
20870;SDS011;10595;51.218;3.452;2024-03-22T09:22:32;18.23;;;8.27;;
20870;SDS011;10595;51.218;3.452;2024-03-22T09:24:59;18.37;;;8.80;;
20870;SDS011;10595;51.218;3.452;2024-03-22T09:27:25;25.13;;;10.20;;
20870;SDS011;10595;51.218;3.452;2024-03-22T09:29:51;17.67;;;8.40;;
20870;SDS011;10595;51.218;3.452;2024-03-22T09:32:17;22.30;;;9.23;;
20870;SDS011;10595;51.218;3.452;2024-03-22T09:34:43;20.67;;;8.67;;
20870;SDS011;10595;51.218;3.452;2024-03-22T09:37:10;19.43;;;8.73;;
20870;SDS011;10595;51.218;3.452;2024-03-22T09:39:35;20.93;;;8.67;;
20870;SDS011;10595;51.218;3.452;2024-03-22T09:42:02;18.20;;;8.63;;
20870;SDS011;10595;51.218;3.452;2024-03-22T09:44:29;22.93;;;8.97;;
20870;SDS011;10595;51.218;3.452;2024-03-22T09:46:57;17.17;;;8.60;;
20870;SDS011;10595;51.218;3.452;2024-03-22T09:49:23;22.47;;;8.87;;
20870;SDS011;10595;51.218;3.452;2024-03-22T09:51:50;19.80;;;9.13;;
20870;SDS011;10595;51.218;3.452;2024-03-22T09:54:17;17.37;;;8.77;;
20870;SDS011;10595;51.218;3.452;2024-03-22T09:56:43;20.50;;;9.60;;
20870;SDS011;10595;51.218;3.452;2024-03-22T09:59:11;21.47;;;9.60;;
20870;SDS011;10595;51.218;3.452;2024-03-22T10:01:37;21.00;;;9.37;;
20870;SDS011;10595;51.218;3.452;2024-03-22T10:04:05;26.83;;;10.27;;
20870;SDS011;10595;51.218;3.452;2024-03-22T10:06:31;26.63;;;11.17;;
20870;SDS011;10595;51.218;3.452;2024-03-22T10:08:58;22.33;;;10.60;;
20870;SDS011;10595;51.218;3.452;2024-03-22T10:11:25;20.13;;;10.73;;
20870;SDS011;10595;51.218;3.452;2024-03-22T10:13:51;19.23;;;9.70;;
20870;SDS011;10595;51.218;3.452;2024-03-22T10:16:17;30.47;;;11.10;;
20870;SDS011;10595;51.218;3.452;2024-03-22T10:18:43;21.80;;;11.43;;
20870;SDS011;10595;51.218;3.452;2024-03-22T10:21:09;25.40;;;10.43;;
20870;SDS011;10595;51.218;3.452;2024-03-22T10:23:36;21.77;;;10.20;;
20870;SDS011;10595;51.218;3.452;2024-03-22T10:26:02;23.47;;;11.50;;
20870;SDS011;10595;51.218;3.452;2024-03-22T10:28:28;23.23;;;12.03;;
20870;SDS011;10595;51.218;3.452;2024-03-22T10:30:54;23.20;;;12.27;;
20870;SDS011;10595;51.218;3.452;2024-03-22T10:33:21;28.23;;;13.67;;
20870;SDS011;10595;51.218;3.452;2024-03-22T10:35:53;28.93;;;14.30;;
20870;SDS011;10595;51.218;3.452;2024-03-22T10:38:20;23.90;;;14.03;;
20870;SDS011;10595;51.218;3.452;2024-03-22T10:40:46;26.10;;;14.40;;
20870;SDS011;10595;51.218;3.452;2024-03-22T10:43:15;23.83;;;13.13;;
20870;SDS011;10595;51.218;3.452;2024-03-22T10:45:42;21.77;;;13.53;;
20870;SDS011;10595;51.218;3.452;2024-03-22T10:48:09;23.07;;;12.50;;
20870;SDS011;10595;51.218;3.452;2024-03-22T10:50:37;26.70;;;13.43;;
20870;SDS011;10595;51.218;3.452;2024-03-22T10:53:04;29.70;;;13.00;;
20870;SDS011;10595;51.218;3.452;2024-03-22T10:55:33;21.53;;;12.47;;
20870;SDS011;10595;51.218;3.452;2024-03-22T10:57:59;18.40;;;11.00;;
20870;SDS011;10595;51.218;3.452;2024-03-22T11:00:28;22.17;;;11.07;;
20870;SDS011;10595;51.218;3.452;2024-03-22T11:02:55;19.37;;;10.93;;
20870;SDS011;10595;51.218;3.452;2024-03-22T11:05:21;25.50;;;12.80;;
20870;SDS011;10595;51.218;3.452;2024-03-22T11:07:47;24.80;;;13.63;;
20870;SDS011;10595;51.218;3.452;2024-03-22T11:10:13;24.93;;;13.63;;
20870;SDS011;10595;51.218;3.452;2024-03-22T11:12:39;30.17;;;14.47;;
20870;SDS011;10595;51.218;3.452;2024-03-22T11:15:06;31.83;;;16.00;;
20870;SDS011;10595;51.218;3.452;2024-03-22T11:17:32;27.87;;;15.40;;
20870;SDS011;10595;51.218;3.452;2024-03-22T11:19:58;28.07;;;15.70;;
20870;SDS011;10595;51.218;3.452;2024-03-22T11:22:27;31.47;;;17.00;;
20870;SDS011;10595;51.218;3.452;2024-03-22T11:24:53;31.77;;;16.57;;
20870;SDS011;10595;51.218;3.452;2024-03-22T11:27:19;31.23;;;16.80;;
20870;SDS011;10595;51.218;3.452;2024-03-22T11:29:45;26.40;;;16.70;;
20870;SDS011;10595;51.218;3.452;2024-03-22T11:32:11;29.23;;;17.63;;
20870;SDS011;10595;51.218;3.452;2024-03-22T11:34:38;28.40;;;16.40;;
20870;SDS011;10595;51.218;3.452;2024-03-22T11:37:06;25.70;;;17.17;;
20870;SDS011;10595;51.218;3.452;2024-03-22T11:39:35;28.60;;;17.43;;
20870;SDS011;10595;51.218;3.452;2024-03-22T11:42:02;33.80;;;18.37;;
20870;SDS011;10595;51.218;3.452;2024-03-22T11:44:28;33.70;;;18.50;;
20870;SDS011;10595;51.218;3.452;2024-03-22T11:46:54;29.43;;;17.93;;
20870;SDS011;10595;51.218;3.452;2024-03-22T11:49:20;27.60;;;17.80;;
20870;SDS011;10595;51.218;3.452;2024-03-22T11:51:46;31.03;;;18.60;;
20870;SDS011;10595;51.218;3.452;2024-03-22T11:54:12;33.37;;;19.77;;
20870;SDS011;10595;51.218;3.452;2024-03-22T11:56:39;32.57;;;19.43;;
20870;SDS011;10595;51.218;3.452;2024-03-22T11:59:06;34.30;;;20.37;;
20870;SDS011;10595;51.218;3.452;2024-03-22T12:01:32;32.77;;;20.23;;
20870;SDS011;10595;51.218;3.452;2024-03-22T12:03:58;33.33;;;20.97;;
20870;SDS011;10595;51.218;3.452;2024-03-22T12:06:24;33.43;;;20.00;;
20870;SDS011;10595;51.218;3.452;2024-03-22T12:08:50;29.33;;;17.73;;
20870;SDS011;10595;51.218;3.452;2024-03-22T12:11:17;24.60;;;16.00;;
20870;SDS011;10595;51.218;3.452;2024-03-22T12:13:43;21.23;;;13.23;;
20870;SDS011;10595;51.218;3.452;2024-03-22T12:16:09;20.90;;;13.67;;
20870;SDS011;10595;51.218;3.452;2024-03-22T12:18:35;23.43;;;12.77;;
20870;SDS011;10595;51.218;3.452;2024-03-22T12:21:01;19.30;;;12.77;;
20870;SDS011;10595;51.218;3.452;2024-03-22T12:23:28;18.40;;;14.10;;
20870;SDS011;10595;51.218;3.452;2024-03-22T12:25:54;18.07;;;13.80;;
20870;SDS011;10595;51.218;3.452;2024-03-22T12:28:21;20.37;;;13.23;;
20870;SDS011;10595;51.218;3.452;2024-03-22T12:30:49;20.93;;;15.13;;
20870;SDS011;10595;51.218;3.452;2024-03-22T12:33:15;23.57;;;15.40;;
20870;SDS011;10595;51.218;3.452;2024-03-22T12:35:41;22.43;;;16.23;;
20870;SDS011;10595;51.218;3.452;2024-03-22T12:38:08;23.27;;;16.13;;
20870;SDS011;10595;51.218;3.452;2024-03-22T12:40:37;20.77;;;14.60;;
20870;SDS011;10595;51.218;3.452;2024-03-22T12:43:03;17.40;;;13.27;;
20870;SDS011;10595;51.218;3.452;2024-03-22T12:45:30;20.57;;;14.30;;
20870;SDS011;10595;51.218;3.452;2024-03-22T12:47:55;20.90;;;14.57;;
20870;SDS011;10595;51.218;3.452;2024-03-22T12:50:21;20.37;;;14.37;;
20870;SDS011;10595;51.218;3.452;2024-03-22T12:52:47;17.00;;;12.40;;
20870;SDS011;10595;51.218;3.452;2024-03-22T12:55:13;16.27;;;11.20;;
20870;SDS011;10595;51.218;3.452;2024-03-22T12:57:39;14.70;;;11.73;;
20870;SDS011;10595;51.218;3.452;2024-03-22T13:00:06;19.07;;;11.87;;
20870;SDS011;10595;51.218;3.452;2024-03-22T13:02:38;17.83;;;12.00;;
20870;SDS011;10595;51.218;3.452;2024-03-22T13:05:04;16.57;;;12.10;;
20870;SDS011;10595;51.218;3.452;2024-03-22T13:07:30;16.70;;;12.03;;
20870;SDS011;10595;51.218;3.452;2024-03-22T13:09:57;17.97;;;12.33;;
20870;SDS011;10595;51.218;3.452;2024-03-22T13:12:25;14.80;;;11.70;;
20870;SDS011;10595;51.218;3.452;2024-03-22T13:14:51;14.93;;;10.90;;
20870;SDS011;10595;51.218;3.452;2024-03-22T13:17:17;14.90;;;11.57;;
20870;SDS011;10595;51.218;3.452;2024-03-22T13:19:43;16.30;;;11.70;;
20870;SDS011;10595;51.218;3.452;2024-03-22T13:22:09;14.80;;;11.87;;
20870;SDS011;10595;51.218;3.452;2024-03-22T13:24:35;14.97;;;11.60;;
20870;SDS011;10595;51.218;3.452;2024-03-22T13:27:01;14.70;;;11.93;;
20870;SDS011;10595;51.218;3.452;2024-03-22T13:29:27;14.57;;;12.37;;
20870;SDS011;10595;51.218;3.452;2024-03-22T13:31:53;17.70;;;13.00;;
20870;SDS011;10595;51.218;3.452;2024-03-22T13:34:20;15.83;;;12.60;;
20870;SDS011;10595;51.218;3.452;2024-03-22T13:36:46;12.87;;;11.20;;
20870;SDS011;10595;51.218;3.452;2024-03-22T13:39:12;14.33;;;11.73;;
20870;SDS011;10595;51.218;3.452;2024-03-22T13:41:40;13.67;;;10.37;;
20870;SDS011;10595;51.218;3.452;2024-03-22T13:44:06;12.57;;;9.70;;
20870;SDS011;10595;51.218;3.452;2024-03-22T13:46:33;12.30;;;9.73;;
20870;SDS011;10595;51.218;3.452;2024-03-22T13:49:01;10.23;;;8.40;;
20870;SDS011;10595;51.218;3.452;2024-03-22T13:51:27;11.10;;;8.17;;
20870;SDS011;10595;51.218;3.452;2024-03-22T13:53:54;11.33;;;9.10;;
20870;SDS011;10595;51.218;3.452;2024-03-22T13:56:20;11.27;;;8.80;;
20870;SDS011;10595;51.218;3.452;2024-03-22T13:58:46;9.70;;;6.80;;
20870;SDS011;10595;51.218;3.452;2024-03-22T14:01:14;7.67;;;6.10;;
20870;SDS011;10595;51.218;3.452;2024-03-22T14:03:40;8.50;;;6.03;;
20870;SDS011;10595;51.218;3.452;2024-03-22T14:06:06;9.93;;;6.13;;
20870;SDS011;10595;51.218;3.452;2024-03-22T14:08:32;11.10;;;7.60;;
20870;SDS011;10595;51.218;3.452;2024-03-22T14:10:58;15.03;;;9.77;;
20870;SDS011;10595;51.218;3.452;2024-03-22T14:13:24;15.97;;;9.17;;
20870;SDS011;10595;51.218;3.452;2024-03-22T14:15:50;12.77;;;9.13;;
20870;SDS011;10595;51.218;3.452;2024-03-22T14:18:16;14.10;;;9.00;;